createdAt,value
2019-03-23T00:00:48.960Z,0.00
2019-03-23T00:01:49.016Z,0.00
2019-03-23T00:02:49.065Z,0.00
2019-03-23T00:03:49.127Z,0.00
2019-03-23T00:04:49.172Z,0.00
2019-03-23T00:05:49.225Z,0.00
2019-03-23T00:06:49.279Z,0.00
2019-03-23T00:07:49.332Z,0.00
2019-03-23T00:08:49.388Z,0.00
2019-03-23T00:09:49.441Z,0.00
2019-03-23T00:10:49.492Z,0.00
2019-03-23T00:11:49.546Z,0.00
2019-03-23T00:12:49.597Z,0.00
2019-03-23T00:13:49.966Z,0.00
2019-03-23T00:14:49.705Z,0.00
2019-03-23T00:15:49.757Z,0.00
2019-03-23T00:16:49.813Z,0.00
2019-03-23T00:17:49.883Z,0.00
2019-03-23T00:18:49.916Z,0.00
2019-03-23T00:19:49.970Z,0.00
2019-03-23T00:20:50.025Z,0.00
2019-03-23T00:21:50.075Z,0.00
2019-03-23T00:22:50.129Z,0.00
2019-03-23T00:23:50.184Z,0.00
2019-03-23T00:24:50.239Z,0.00
2019-03-23T00:25:50.286Z,0.00
2019-03-23T00:26:50.342Z,0.00
2019-03-23T00:27:50.393Z,0.00
2019-03-23T00:28:50.449Z,0.00
2019-03-23T00:29:50.499Z,0.00
2019-03-23T00:30:50.553Z,0.00
2019-03-23T00:31:50.606Z,0.00
2019-03-23T00:32:50.660Z,0.00
2019-03-23T00:33:50.711Z,0.00
2019-03-23T00:34:50.765Z,0.00
2019-03-23T00:35:50.822Z,0.00
2019-03-23T00:36:50.874Z,0.00
2019-03-23T00:37:50.925Z,0.00
2019-03-23T00:38:50.976Z,0.00
2019-03-23T00:39:51.031Z,0.00
2019-03-23T00:40:51.086Z,0.00
2019-03-23T00:41:51.137Z,0.00
2019-03-23T00:42:51.190Z,0.00
2019-03-23T00:43:51.243Z,0.00
2019-03-23T00:44:51.296Z,0.00
2019-03-23T00:45:51.347Z,0.00
2019-03-23T00:46:51.430Z,0.00
2019-03-23T00:47:51.455Z,0.00
2019-03-23T00:48:51.506Z,0.00
2019-03-23T00:49:51.558Z,0.00
2019-03-23T00:50:52.305Z,0.00
2019-03-23T00:51:51.667Z,0.00
2019-03-23T00:52:51.719Z,0.00
2019-03-23T00:53:51.771Z,0.00
2019-03-23T00:54:51.824Z,0.00
2019-03-23T00:55:51.877Z,0.00
2019-03-23T00:56:51.932Z,0.00
2019-03-23T00:57:51.983Z,0.00
2019-03-23T00:58:52.035Z,0.00
2019-03-23T00:59:52.087Z,0.00
2019-03-23T01:00:52.148Z,0.00
2019-03-23T01:01:52.194Z,0.00
2019-03-23T01:02:52.246Z,0.00
2019-03-23T01:03:52.299Z,0.00
2019-03-23T01:04:52.354Z,0.00
2019-03-23T01:05:52.406Z,0.00
2019-03-23T01:06:52.574Z,0.00
2019-03-23T01:07:52.510Z,0.00
2019-03-23T01:08:52.564Z,0.00
2019-03-23T01:09:52.618Z,0.00
2019-03-23T01:10:52.669Z,0.00
2019-03-23T01:11:52.723Z,0.00
2019-03-23T01:12:52.775Z,0.00
2019-03-23T01:13:52.826Z,0.00
2019-03-23T01:14:52.879Z,0.00
2019-03-23T01:15:52.936Z,0.00
2019-03-23T01:16:52.987Z,0.00
2019-03-23T01:17:53.055Z,0.00
2019-03-23T01:18:53.092Z,0.00
2019-03-23T01:19:53.147Z,0.00
2019-03-23T01:20:53.198Z,0.00
2019-03-23T01:21:53.250Z,0.00
2019-03-23T01:22:53.307Z,0.00
2019-03-23T01:23:53.359Z,0.00
2019-03-23T01:24:53.408Z,0.00
2019-03-23T01:25:53.462Z,0.00
2019-03-23T01:26:53.515Z,0.00
2019-03-23T01:27:53.567Z,0.00
2019-03-23T01:28:53.620Z,0.00
2019-03-23T01:29:53.673Z,0.00
2019-03-23T01:30:53.727Z,0.00
2019-03-23T01:31:53.777Z,0.00
2019-03-23T01:32:53.831Z,0.00
2019-03-23T01:33:53.888Z,0.00
2019-03-23T01:34:53.936Z,0.00
2019-03-23T01:35:53.988Z,0.00
2019-03-23T01:37:02.510Z,0.00
2019-03-23T01:37:54.092Z,0.00
2019-03-23T01:38:54.145Z,0.00
2019-03-23T01:39:54.199Z,0.00
2019-03-23T01:40:54.251Z,0.00
2019-03-23T01:41:54.304Z,0.00
2019-03-23T01:42:54.357Z,0.00
2019-03-23T01:43:54.409Z,0.00
2019-03-23T01:44:54.460Z,0.00
2019-03-23T01:45:54.512Z,0.00
2019-03-23T01:46:54.565Z,0.00
2019-03-23T01:47:54.618Z,0.00
2019-03-23T01:48:54.671Z,0.00
2019-03-23T01:49:54.723Z,0.00
2019-03-23T01:50:54.775Z,0.00
2019-03-23T01:51:54.831Z,0.00
2019-03-23T01:52:54.881Z,0.00
2019-03-23T01:53:54.934Z,0.00
2019-03-23T01:54:54.985Z,0.00
2019-03-23T01:55:55.039Z,0.00
2019-03-23T01:56:55.091Z,0.00
2019-03-23T01:57:55.142Z,0.00
2019-03-23T01:58:55.196Z,0.00
2019-03-23T01:59:55.250Z,0.00
2019-03-23T02:00:55.301Z,0.00
2019-03-23T02:01:55.352Z,0.00
2019-03-23T02:02:55.404Z,0.00
2019-03-23T02:03:55.457Z,0.00
2019-03-23T02:04:55.511Z,0.00
2019-03-23T02:05:55.565Z,0.00
2019-03-23T02:06:55.614Z,0.00
2019-03-23T02:07:55.665Z,0.00
2019-03-23T02:08:55.719Z,0.00
2019-03-23T02:09:55.770Z,0.00
2019-03-23T02:10:55.823Z,0.00
2019-03-23T02:11:55.877Z,0.00
2019-03-23T02:12:55.928Z,0.00
2019-03-23T02:13:55.978Z,0.00
2019-03-23T02:14:56.035Z,0.00
2019-03-23T02:15:56.088Z,0.00
2019-03-23T02:16:56.136Z,0.00
2019-03-23T02:17:56.187Z,0.00
2019-03-23T02:18:56.240Z,0.00
2019-03-23T02:19:56.294Z,0.00
2019-03-23T02:20:56.347Z,0.00
2019-03-23T02:21:56.397Z,0.00
2019-03-23T02:22:56.449Z,0.00
2019-03-23T02:23:56.501Z,0.00
2019-03-23T02:24:56.578Z,0.00
2019-03-23T02:25:56.605Z,0.00
2019-03-23T02:26:56.658Z,0.00
2019-03-23T02:27:56.710Z,0.00
2019-03-23T02:28:56.765Z,0.00
2019-03-23T02:29:56.814Z,0.00
2019-03-23T02:30:56.866Z,0.00
2019-03-23T02:31:56.921Z,0.00
2019-03-23T02:32:56.972Z,0.00
2019-03-23T02:33:57.025Z,0.00
2019-03-23T02:34:57.077Z,0.00
2019-03-23T02:35:57.135Z,0.00
2019-03-23T02:36:57.761Z,0.00
2019-03-23T02:37:57.233Z,0.00
2019-03-23T02:38:57.285Z,0.00
2019-03-23T02:39:57.338Z,0.00
2019-03-23T02:40:57.390Z,0.00
2019-03-23T02:41:57.441Z,0.00
2019-03-23T02:42:57.494Z,0.00
2019-03-23T02:43:57.546Z,0.00
2019-03-23T02:44:57.600Z,0.00
2019-03-23T02:45:57.651Z,0.00
2019-03-23T02:46:57.703Z,0.00
2019-03-23T02:47:57.754Z,0.00
2019-03-23T02:48:57.805Z,0.00
2019-03-23T02:49:57.859Z,0.00
2019-03-23T02:50:57.913Z,0.00
2019-03-23T02:51:57.962Z,0.00
2019-03-23T02:52:58.014Z,0.00
2019-03-23T02:53:58.068Z,0.00
2019-03-23T02:54:58.118Z,0.00
2019-03-23T02:55:58.170Z,0.00
2019-03-23T02:56:58.226Z,0.00
2019-03-23T02:57:58.276Z,0.00
2019-03-23T02:58:58.326Z,0.00
2019-03-23T02:59:58.379Z,0.00
2019-03-23T03:00:58.432Z,0.00
2019-03-23T03:01:58.482Z,0.00
2019-03-23T03:02:58.547Z,0.00
2019-03-23T03:03:58.586Z,0.00
2019-03-23T03:04:58.644Z,0.00
2019-03-23T03:05:58.691Z,0.00
2019-03-23T03:06:58.742Z,0.00
2019-03-23T03:07:58.795Z,0.00
2019-03-23T03:08:58.848Z,0.00
2019-03-23T03:09:58.908Z,0.00
2019-03-23T03:10:58.961Z,0.00
2019-03-23T03:11:59.001Z,0.00
2019-03-23T03:12:59.055Z,0.00
2019-03-23T03:13:59.105Z,0.00
2019-03-23T03:14:59.157Z,0.00
2019-03-23T03:15:59.212Z,0.00
2019-03-23T03:16:59.262Z,0.00
2019-03-23T03:17:59.327Z,0.00
2019-03-23T03:18:59.366Z,0.00
2019-03-23T03:19:59.418Z,0.00
2019-03-23T03:20:59.468Z,0.00
2019-03-23T03:21:59.520Z,0.00
2019-03-23T03:22:59.574Z,0.00
2019-03-23T03:23:59.628Z,0.00
2019-03-23T03:24:59.675Z,0.00
2019-03-23T03:25:59.736Z,0.00
2019-03-23T03:26:59.786Z,0.00
2019-03-23T03:27:59.837Z,0.00
2019-03-23T03:28:59.888Z,0.00
2019-03-23T03:29:59.934Z,0.00
2019-03-23T03:30:59.987Z,0.00
2019-03-23T03:32:00.040Z,0.00
2019-03-23T03:33:00.114Z,0.00
2019-03-23T03:34:00.152Z,0.00
2019-03-23T03:35:00.658Z,0.00
2019-03-23T03:36:00.247Z,0.00
2019-03-23T03:37:00.299Z,0.00
2019-03-23T03:38:01.106Z,0.00
2019-03-23T03:39:00.405Z,0.00
2019-03-23T03:40:00.554Z,0.00
2019-03-23T03:41:00.507Z,0.00
2019-03-23T03:42:00.557Z,0.00
2019-03-23T03:43:00.609Z,0.00
2019-03-23T03:44:00.661Z,0.00
2019-03-23T03:45:00.714Z,0.00
2019-03-23T03:46:00.762Z,0.00
2019-03-23T03:47:00.816Z,0.00
2019-03-23T03:48:00.902Z,0.00
2019-03-23T03:49:11.763Z,0.00
2019-03-23T03:50:00.971Z,0.00
2019-03-23T03:51:01.021Z,0.00
2019-03-23T03:52:01.080Z,0.00
2019-03-23T03:53:01.127Z,0.00
2019-03-23T03:54:01.177Z,0.00
2019-03-23T03:55:01.252Z,0.00
2019-03-23T03:56:01.299Z,0.00
2019-03-23T03:57:01.332Z,0.00
2019-03-23T03:58:01.388Z,0.00
2019-03-23T03:59:01.437Z,0.00
2019-03-23T04:00:01.488Z,0.00
2019-03-23T04:01:01.557Z,0.00
2019-03-23T04:02:01.591Z,0.00
2019-03-23T04:03:01.647Z,0.00
2019-03-23T04:04:01.694Z,0.00
2019-03-23T04:05:01.754Z,0.00
2019-03-23T04:06:01.802Z,0.00
2019-03-23T04:07:01.849Z,0.00
2019-03-23T04:08:10.852Z,0.00
2019-03-23T04:09:01.954Z,0.00
2019-03-23T04:10:02.017Z,0.00
2019-03-23T04:11:02.055Z,0.00
2019-03-23T04:12:02.107Z,0.00
2019-03-23T04:13:02.160Z,0.00
2019-03-23T04:14:02.213Z,0.00
2019-03-23T04:15:02.263Z,0.00
2019-03-23T04:16:02.327Z,0.00
2019-03-23T04:17:02.366Z,0.00
2019-03-23T04:18:02.414Z,0.00
2019-03-23T04:19:02.477Z,0.00
2019-03-23T04:20:02.522Z,0.00
2019-03-23T04:21:02.571Z,0.00
2019-03-23T04:22:02.622Z,0.00
2019-03-23T04:23:02.677Z,0.00
2019-03-23T04:24:02.748Z,0.00
2019-03-23T04:25:02.776Z,0.00
2019-03-23T04:26:02.831Z,0.00
2019-03-23T04:27:02.879Z,0.00
2019-03-23T04:28:02.931Z,0.00
2019-03-23T04:29:02.984Z,0.00
2019-03-23T04:30:03.035Z,0.00
2019-03-23T04:31:03.087Z,0.00
2019-03-23T04:32:03.137Z,0.00
2019-03-23T04:33:03.187Z,0.00
2019-03-23T04:34:03.244Z,0.00
2019-03-23T04:35:03.292Z,0.00
2019-03-23T04:36:03.355Z,0.00
2019-03-23T04:37:03.407Z,0.00
2019-03-23T04:38:03.444Z,0.00
2019-03-23T04:39:03.498Z,0.00
2019-03-23T04:40:03.548Z,0.00
2019-03-23T04:41:03.600Z,0.00
2019-03-23T04:42:03.651Z,0.00
2019-03-23T04:43:03.702Z,0.00
2019-03-23T04:44:03.754Z,0.00
2019-03-23T04:45:03.806Z,0.00
2019-03-23T04:46:03.856Z,0.00
2019-03-23T04:47:03.910Z,0.00
2019-03-23T04:48:03.961Z,0.00
2019-03-23T04:49:04.012Z,0.00
2019-03-23T04:50:04.064Z,0.00
2019-03-23T04:51:04.117Z,0.00
2019-03-23T04:52:04.165Z,0.00
2019-03-23T04:53:04.217Z,0.00
2019-03-23T04:54:04.271Z,0.00
2019-03-23T04:55:04.323Z,0.00
2019-03-23T04:56:04.373Z,0.00
2019-03-23T04:57:04.422Z,0.00
2019-03-23T04:58:04.473Z,0.00
2019-03-23T04:59:04.525Z,0.00
2019-03-23T05:00:04.577Z,0.00
2019-03-23T05:01:04.629Z,0.00
2019-03-23T05:02:04.681Z,0.00
2019-03-23T05:03:04.730Z,0.00
2019-03-23T05:04:04.781Z,0.00
2019-03-23T05:05:04.835Z,0.00
2019-03-23T05:06:04.884Z,0.00
2019-03-23T05:07:04.935Z,0.00
2019-03-23T05:08:04.989Z,0.00
2019-03-23T05:09:05.037Z,0.00
2019-03-23T05:10:05.087Z,0.00
2019-03-23T05:11:05.140Z,0.00
2019-03-23T05:12:05.190Z,0.00
2019-03-23T05:13:05.243Z,0.00
2019-03-23T05:14:05.294Z,0.00
2019-03-23T05:15:05.344Z,0.00
2019-03-23T05:16:05.395Z,0.00
2019-03-23T05:17:05.448Z,0.00
2019-03-23T05:18:05.502Z,0.00
2019-03-23T05:19:05.549Z,0.00
2019-03-23T05:20:05.602Z,5.63
2019-03-23T05:21:05.654Z,5.63
2019-03-23T05:22:05.703Z,5.63
2019-03-23T05:23:05.755Z,5.63
2019-03-23T05:24:05.806Z,5.63
2019-03-23T05:25:05.858Z,5.63
2019-03-23T05:26:05.907Z,5.63
2019-03-23T05:27:05.958Z,11.25
2019-03-23T05:28:06.010Z,11.25
2019-03-23T05:29:06.061Z,11.25
2019-03-23T05:30:06.115Z,11.25
2019-03-23T05:31:07.148Z,11.25
2019-03-23T05:32:06.218Z,16.88
2019-03-23T05:33:06.265Z,16.88
2019-03-23T05:34:06.318Z,16.88
2019-03-23T05:35:06.369Z,16.88
2019-03-23T05:36:06.423Z,22.50
2019-03-23T05:37:06.471Z,22.50
2019-03-23T05:38:07.136Z,22.50
2019-03-23T05:39:07.083Z,22.50
2019-03-23T05:40:06.623Z,28.13
2019-03-23T05:41:06.675Z,28.13
2019-03-23T05:42:06.727Z,28.13
2019-03-23T05:43:06.777Z,33.75
2019-03-23T05:44:06.830Z,33.75
2019-03-23T05:45:07.359Z,33.75
2019-03-23T05:46:06.930Z,39.38
2019-03-23T05:47:06.982Z,39.38
2019-03-23T05:48:07.033Z,39.38
2019-03-23T05:49:07.085Z,45.00
2019-03-23T05:50:07.134Z,45.00
2019-03-23T05:51:07.186Z,45.00
2019-03-23T05:52:07.238Z,50.63
2019-03-23T05:53:07.288Z,50.63
2019-03-23T05:54:07.340Z,50.63
2019-03-23T05:55:07.390Z,56.25
2019-03-23T05:56:07.443Z,56.25
2019-03-23T05:57:07.493Z,56.25
2019-03-23T05:58:07.545Z,61.88
2019-03-23T05:59:07.596Z,61.88
2019-03-23T06:00:07.654Z,61.88
2019-03-23T06:01:07.697Z,61.88
2019-03-23T06:02:07.750Z,67.50
2019-03-23T06:03:07.801Z,67.50
2019-03-23T06:04:07.853Z,67.50
2019-03-23T06:05:07.902Z,67.50
2019-03-23T06:06:07.954Z,73.13
2019-03-23T06:07:08.005Z,73.13
2019-03-23T06:08:08.059Z,73.13
2019-03-23T06:09:08.108Z,73.13
2019-03-23T06:10:08.160Z,78.75
2019-03-23T06:11:08.211Z,78.75
2019-03-23T06:12:08.262Z,78.75
2019-03-23T06:13:08.313Z,78.75
2019-03-23T06:14:08.364Z,78.75
2019-03-23T06:15:08.416Z,84.38
2019-03-23T06:16:08.472Z,84.38
2019-03-23T06:17:08.520Z,84.38
2019-03-23T06:18:08.572Z,84.38
2019-03-23T06:19:08.622Z,84.38
2019-03-23T06:20:08.674Z,90.00
2019-03-23T06:21:08.725Z,90.00
2019-03-23T06:22:08.776Z,90.00
2019-03-23T06:23:08.828Z,95.63
2019-03-23T06:24:08.879Z,95.63
2019-03-23T06:25:08.934Z,95.63
2019-03-23T06:26:08.984Z,101.25
2019-03-23T06:27:09.033Z,101.25
2019-03-23T06:28:09.083Z,101.25
2019-03-23T06:29:09.136Z,106.88
2019-03-23T06:30:09.187Z,106.88
2019-03-23T06:31:09.237Z,106.88
2019-03-23T06:32:09.293Z,112.50
2019-03-23T06:33:09.343Z,112.50
2019-03-23T06:34:09.391Z,112.50
2019-03-23T06:35:09.444Z,118.13
2019-03-23T06:36:09.497Z,118.13
2019-03-23T06:37:10.289Z,118.13
2019-03-23T06:38:09.598Z,118.13
2019-03-23T06:39:09.654Z,123.75
2019-03-23T06:40:09.702Z,123.75
2019-03-23T06:41:09.797Z,123.75
2019-03-23T06:42:09.804Z,129.38
2019-03-23T06:43:09.856Z,129.38
2019-03-23T06:44:09.909Z,129.38
2019-03-23T06:45:09.963Z,129.38
2019-03-23T06:46:10.011Z,129.38
2019-03-23T06:47:10.070Z,135.00
2019-03-23T06:48:10.118Z,135.00
2019-03-23T06:49:10.170Z,135.00
2019-03-23T06:50:10.225Z,140.63
2019-03-23T06:51:10.312Z,140.63
2019-03-23T06:52:10.322Z,140.63
2019-03-23T06:53:10.375Z,146.25
2019-03-23T06:54:10.428Z,146.25
2019-03-23T06:55:10.481Z,146.25
2019-03-23T06:56:10.572Z,151.88
2019-03-23T06:57:10.582Z,151.88
2019-03-23T06:58:10.634Z,157.50
2019-03-23T06:59:10.686Z,157.50
2019-03-23T07:00:10.740Z,157.50
2019-03-23T07:01:10.795Z,163.13
2019-03-23T07:02:10.843Z,163.13
2019-03-23T07:03:10.896Z,163.13
2019-03-23T07:04:10.948Z,168.75
2019-03-23T07:05:11.001Z,168.75
2019-03-23T07:06:11.053Z,174.38
2019-03-23T07:07:11.104Z,174.38
2019-03-23T07:08:11.161Z,174.38
2019-03-23T07:09:16.211Z,174.38
2019-03-23T07:10:11.261Z,180.00
2019-03-23T07:11:11.313Z,180.00
2019-03-23T07:12:11.370Z,180.00
2019-03-23T07:13:11.421Z,180.00
2019-03-23T07:14:11.470Z,180.00
2019-03-23T07:15:19.467Z,185.63
2019-03-23T07:16:11.576Z,185.63
2019-03-23T07:17:11.630Z,191.25
2019-03-23T07:18:11.682Z,191.25
2019-03-23T07:19:11.734Z,191.25
2019-03-23T07:20:11.788Z,196.88
2019-03-23T07:21:11.841Z,196.88
2019-03-23T07:22:11.893Z,202.50
2019-03-23T07:23:11.977Z,202.50
2019-03-23T07:24:12.003Z,202.50
2019-03-23T07:25:12.058Z,202.50
2019-03-23T07:26:12.105Z,202.50
2019-03-23T07:27:12.157Z,208.13
2019-03-23T07:28:12.211Z,208.13
2019-03-23T07:29:12.263Z,213.75
2019-03-23T07:30:12.315Z,213.75
2019-03-23T07:31:12.369Z,213.75
2019-03-23T07:32:12.422Z,219.38
2019-03-23T07:33:12.476Z,219.38
2019-03-23T07:34:12.529Z,219.38
2019-03-23T07:35:12.581Z,225.00
2019-03-23T07:36:12.634Z,225.00
2019-03-23T07:37:12.692Z,225.00
2019-03-23T07:38:12.740Z,225.00
2019-03-23T07:39:12.792Z,230.63
2019-03-23T07:40:12.845Z,230.63
2019-03-23T07:41:12.900Z,236.25
2019-03-23T07:42:12.952Z,236.25
2019-03-23T07:43:13.006Z,236.25
2019-03-23T07:44:13.058Z,241.88
2019-03-23T07:45:13.112Z,241.88
2019-03-23T07:46:13.164Z,241.88
2019-03-23T07:47:13.218Z,247.50
2019-03-23T07:48:13.270Z,247.50
2019-03-23T07:49:13.329Z,253.13
2019-03-23T07:50:13.383Z,253.13
2019-03-23T07:51:13.430Z,258.75
2019-03-23T07:52:13.485Z,258.75
2019-03-23T07:53:13.538Z,258.75
2019-03-23T07:54:13.591Z,264.38
2019-03-23T07:55:13.645Z,264.38
2019-03-23T07:56:13.698Z,270.00
2019-03-23T07:57:13.751Z,270.00
2019-03-23T07:58:13.805Z,270.00
2019-03-23T07:59:13.858Z,270.00
2019-03-23T08:00:13.918Z,275.63
2019-03-23T08:01:13.965Z,275.63
2019-03-23T08:02:14.018Z,275.63
2019-03-23T08:03:14.072Z,275.63
2019-03-23T08:04:14.126Z,281.25
2019-03-23T08:05:14.179Z,281.25
2019-03-23T08:06:14.232Z,286.88
2019-03-23T08:07:14.285Z,286.88
2019-03-23T08:08:14.340Z,292.50
2019-03-23T08:09:20.345Z,292.50
2019-03-23T08:10:14.447Z,298.13
2019-03-23T08:11:14.501Z,303.75
2019-03-23T08:12:14.554Z,303.75
2019-03-23T08:13:14.615Z,309.38
2019-03-23T08:14:14.661Z,309.38
2019-03-23T08:15:14.718Z,315.00
2019-03-23T08:16:14.770Z,320.63
2019-03-23T08:17:14.824Z,320.63
2019-03-23T08:18:14.878Z,326.25
2019-03-23T08:19:14.932Z,326.25
2019-03-23T08:20:14.987Z,326.25
2019-03-23T08:21:15.040Z,326.25
2019-03-23T08:22:15.093Z,326.25
2019-03-23T08:23:15.150Z,326.25
2019-03-23T08:24:15.202Z,331.88
2019-03-23T08:25:15.263Z,331.88
2019-03-23T08:26:15.309Z,337.50
2019-03-23T08:27:15.370Z,343.13
2019-03-23T08:28:15.417Z,343.13
2019-03-23T08:29:15.471Z,348.75
2019-03-23T08:30:15.525Z,348.75
2019-03-23T08:31:15.600Z,354.38
2019-03-23T08:32:15.635Z,365.63
2019-03-23T08:33:15.689Z,376.88
2019-03-23T08:34:15.744Z,382.50
2019-03-23T08:35:15.798Z,382.50
2019-03-23T08:36:15.851Z,399.38
2019-03-23T08:37:15.906Z,421.88
2019-03-23T08:38:15.960Z,416.25
2019-03-23T08:39:16.018Z,410.63
2019-03-23T08:40:16.071Z,416.25
2019-03-23T08:41:16.125Z,421.88
2019-03-23T08:43:23.684Z,393.75
2019-03-23T08:44:23.739Z,399.38
2019-03-23T08:45:23.792Z,405.00
2019-03-23T08:47:06.284Z,421.88
2019-03-23T08:48:06.338Z,444.38
2019-03-23T08:49:06.392Z,455.63
2019-03-23T08:50:06.448Z,472.50
2019-03-23T08:51:06.502Z,478.13
2019-03-23T08:52:06.557Z,478.13
2019-03-23T08:53:06.613Z,478.13
2019-03-23T08:54:06.669Z,489.38
2019-03-23T08:55:06.734Z,511.88
2019-03-23T08:56:06.779Z,534.38
2019-03-23T08:57:06.833Z,540.00
2019-03-23T08:58:06.889Z,528.75
2019-03-23T08:59:06.945Z,517.50
2019-03-23T09:00:07.003Z,528.75
2019-03-23T09:01:07.055Z,551.25
2019-03-23T09:02:07.111Z,568.13
2019-03-23T09:03:07.165Z,534.38
2019-03-23T09:04:07.233Z,528.75
2019-03-23T09:05:07.277Z,534.38
2019-03-23T09:06:07.334Z,534.38
2019-03-23T09:07:07.388Z,540.00
2019-03-23T09:08:07.443Z,551.25
2019-03-23T09:09:07.501Z,568.13
2019-03-23T09:10:07.555Z,585.00
2019-03-23T09:11:07.612Z,596.25
2019-03-23T09:12:07.667Z,601.88
2019-03-23T09:13:08.352Z,601.88
2019-03-23T09:14:08.440Z,596.25
2019-03-23T09:15:07.837Z,590.63
2019-03-23T09:16:07.893Z,613.13
2019-03-23T09:17:07.949Z,618.75
2019-03-23T09:18:08.008Z,601.88
2019-03-23T09:19:08.063Z,596.25
2019-03-23T09:20:08.119Z,601.88
2019-03-23T09:21:08.176Z,607.50
2019-03-23T09:22:08.231Z,618.75
2019-03-23T09:23:08.288Z,613.13
2019-03-23T09:24:08.347Z,613.13
2019-03-23T09:25:08.405Z,618.75
2019-03-23T09:26:08.460Z,613.13
2019-03-23T09:27:08.516Z,607.50
2019-03-23T09:28:08.576Z,613.13
2019-03-23T09:29:08.629Z,613.13
2019-03-23T09:30:08.685Z,601.88
2019-03-23T09:31:08.742Z,596.25
2019-03-23T09:32:08.799Z,585.00
2019-03-23T09:33:08.859Z,585.00
2019-03-23T09:34:08.915Z,573.75
2019-03-23T09:35:08.970Z,568.13
2019-03-23T09:36:09.026Z,579.38
2019-03-23T09:37:09.085Z,590.63
2019-03-23T09:38:09.765Z,596.25
2019-03-23T09:39:09.204Z,607.50
2019-03-23T09:40:10.979Z,618.75
2019-03-23T09:41:09.313Z,613.13
2019-03-23T09:42:09.371Z,607.50
2019-03-23T09:43:09.427Z,601.88
2019-03-23T09:44:09.483Z,618.75
2019-03-23T09:45:09.541Z,630.00
2019-03-23T09:46:09.598Z,646.88
2019-03-23T09:47:09.654Z,646.88
2019-03-23T09:48:10.222Z,652.50
2019-03-23T09:49:09.770Z,652.50
2019-03-23T09:50:09.826Z,652.50
2019-03-23T09:51:09.883Z,652.50
2019-03-23T09:52:09.943Z,630.00
2019-03-23T09:53:09.998Z,618.75
2019-03-23T09:54:10.057Z,624.38
2019-03-23T09:55:10.115Z,630.00
2019-03-23T09:56:10.171Z,618.75
2019-03-23T09:57:10.237Z,613.13
2019-03-23T09:58:10.285Z,607.50
2019-03-23T09:59:10.357Z,624.38
2019-03-23T10:00:10.401Z,641.25
2019-03-23T10:01:10.458Z,663.75
2019-03-23T10:02:10.517Z,675.00
2019-03-23T10:03:10.576Z,658.13
2019-03-23T10:04:10.631Z,646.88
2019-03-23T10:05:10.687Z,646.88
2019-03-23T10:06:10.747Z,635.63
2019-03-23T10:07:10.802Z,618.75
2019-03-23T10:08:10.863Z,624.38
2019-03-23T10:09:10.919Z,635.63
2019-03-23T10:10:20.953Z,641.25
2019-03-23T10:11:11.035Z,646.88
2019-03-23T10:12:11.111Z,658.13
2019-03-23T10:13:11.151Z,669.38
2019-03-23T10:14:11.207Z,663.75
2019-03-23T10:15:11.269Z,641.25
2019-03-23T10:16:11.322Z,630.00
2019-03-23T10:17:11.380Z,630.00
2019-03-23T10:18:11.442Z,624.38
2019-03-23T10:19:11.505Z,624.38
2019-03-23T10:20:11.555Z,630.00
2019-03-23T10:21:11.614Z,658.13
2019-03-23T10:22:11.671Z,691.88
2019-03-23T10:23:11.733Z,697.50
2019-03-23T10:24:11.789Z,675.00
2019-03-23T10:25:11.846Z,635.63
2019-03-23T10:26:11.904Z,607.50
2019-03-23T10:27:11.962Z,573.75
2019-03-23T10:28:12.027Z,545.63
2019-03-23T10:29:12.079Z,545.63
2019-03-23T10:30:12.140Z,551.25
2019-03-23T10:31:12.193Z,551.25
2019-03-23T10:32:12.253Z,551.25
2019-03-23T10:33:12.312Z,556.88
2019-03-23T10:34:12.369Z,568.13
2019-03-23T10:35:12.427Z,579.38
2019-03-23T10:36:12.486Z,585.00
2019-03-23T10:37:12.543Z,585.00
2019-03-23T10:38:12.602Z,579.38
2019-03-23T10:39:12.662Z,573.75
2019-03-23T10:40:12.719Z,556.88
2019-03-23T10:41:12.777Z,562.50
2019-03-23T10:42:12.835Z,579.38
2019-03-23T10:43:12.893Z,596.25
2019-03-23T10:44:12.951Z,607.50
2019-03-23T10:45:13.008Z,613.13
2019-03-23T10:46:13.068Z,613.13
2019-03-23T10:47:13.124Z,624.38
2019-03-23T10:48:13.183Z,630.00
2019-03-23T10:49:13.242Z,630.00
2019-03-23T10:50:13.300Z,607.50
2019-03-23T10:51:13.358Z,607.50
2019-03-23T10:52:13.418Z,624.38
2019-03-23T10:53:22.758Z,652.50
2019-03-23T10:54:13.546Z,669.38
2019-03-23T10:55:13.588Z,691.88
2019-03-23T10:56:13.650Z,697.50
2019-03-23T10:57:13.706Z,703.13
2019-03-23T10:58:13.769Z,697.50
2019-03-23T10:59:13.821Z,697.50
2019-03-23T11:00:13.882Z,703.13
2019-03-23T11:01:13.937Z,708.75
2019-03-23T11:02:13.995Z,708.75
2019-03-23T11:03:14.052Z,731.25
2019-03-23T11:04:14.110Z,759.38
2019-03-23T11:05:14.172Z,765.00
2019-03-23T11:06:14.227Z,781.88
2019-03-23T11:07:15.405Z,781.88
2019-03-23T11:08:14.342Z,765.00
2019-03-23T11:09:14.402Z,742.50
2019-03-23T11:10:14.460Z,736.88
2019-03-23T11:11:14.520Z,736.88
2019-03-23T11:12:14.576Z,742.50
2019-03-23T11:13:14.636Z,753.75
2019-03-23T11:14:14.694Z,742.50
2019-03-23T11:15:14.767Z,714.38
2019-03-23T11:16:14.810Z,686.25
2019-03-23T11:17:14.886Z,691.88
2019-03-23T11:18:14.931Z,697.50
2019-03-23T11:19:14.983Z,714.38
2019-03-23T11:20:15.043Z,742.50
2019-03-23T11:21:15.101Z,810.00
2019-03-23T11:22:15.161Z,888.75
2019-03-23T11:23:15.218Z,900.00
2019-03-23T11:24:15.284Z,871.88
2019-03-23T11:25:15.335Z,883.13
2019-03-23T11:26:15.393Z,894.38
2019-03-23T11:27:15.452Z,894.38
2019-03-23T11:28:15.511Z,866.25
2019-03-23T11:29:15.569Z,821.25
2019-03-23T11:30:15.674Z,810.00
2019-03-23T11:31:15.687Z,826.88
2019-03-23T11:32:15.746Z,855.00
2019-03-23T11:33:15.805Z,871.88
2019-03-23T11:34:18.122Z,888.75
2019-03-23T11:35:16.038Z,905.63
2019-03-23T11:36:15.980Z,933.75
2019-03-23T11:37:16.112Z,928.13
2019-03-23T11:38:16.101Z,933.75
2019-03-23T11:39:16.158Z,967.50
2019-03-23T11:40:16.217Z,1012.50
2019-03-23T11:41:16.277Z,1046.25
2019-03-23T11:42:16.335Z,1046.25
2019-03-23T11:43:16.395Z,1023.75
2019-03-23T11:44:16.454Z,1006.88
2019-03-23T11:45:16.515Z,995.63
2019-03-23T11:46:17.091Z,1035.00
2019-03-23T11:47:16.634Z,1130.63
2019-03-23T11:48:16.693Z,1074.38
2019-03-23T11:49:16.753Z,1355.63
2019-03-23T11:50:16.812Z,1344.38
2019-03-23T11:51:16.872Z,1215.00
2019-03-23T11:52:16.930Z,1209.38
2019-03-23T11:53:16.990Z,1406.25
2019-03-23T11:54:17.051Z,1496.25
2019-03-23T11:55:17.111Z,1276.88
2019-03-23T11:56:18.182Z,1175.63
2019-03-23T11:57:17.232Z,1136.25
2019-03-23T11:58:17.291Z,1108.13
2019-03-23T11:59:17.350Z,1035.00
2019-03-23T12:00:17.413Z,973.13
2019-03-23T12:01:17.474Z,933.75
2019-03-23T12:02:17.534Z,945.00
2019-03-23T12:03:17.594Z,1006.88
2019-03-23T12:04:17.659Z,1001.25
2019-03-23T12:05:17.715Z,961.88
2019-03-23T12:06:17.776Z,1035.00
2019-03-23T12:07:17.836Z,1102.50
2019-03-23T12:08:17.902Z,1518.75
2019-03-23T12:09:17.958Z,2036.25
2019-03-23T12:10:18.018Z,1423.13
2019-03-23T12:11:18.078Z,1023.75
2019-03-23T12:12:18.138Z,1057.50
2019-03-23T12:13:18.198Z,1186.88
2019-03-23T12:14:18.261Z,1248.75
2019-03-23T12:15:18.319Z,1434.38
2019-03-23T12:16:18.383Z,1198.13
2019-03-23T12:17:18.444Z,1136.25
2019-03-23T12:18:18.502Z,1046.25
2019-03-23T12:19:18.562Z,967.50
2019-03-23T12:20:18.623Z,945.00
2019-03-23T12:21:18.686Z,984.38
2019-03-23T12:22:18.746Z,1102.50
2019-03-23T12:23:18.808Z,1186.88
2019-03-23T12:24:18.866Z,1074.38
2019-03-23T12:25:18.929Z,1108.13
2019-03-23T12:26:18.989Z,1186.88
2019-03-23T12:27:19.049Z,1147.50
2019-03-23T12:28:19.110Z,1231.88
2019-03-23T12:29:19.170Z,1366.88
2019-03-23T12:30:19.765Z,1226.25
2019-03-23T12:31:19.292Z,1158.75
2019-03-23T12:32:19.353Z,1186.88
2019-03-23T12:33:21.419Z,1355.63
2019-03-23T12:34:19.475Z,1310.63
2019-03-23T12:35:19.535Z,1620.00
2019-03-23T12:36:19.596Z,2013.75
2019-03-23T12:37:19.658Z,1575.00
2019-03-23T12:38:19.718Z,1614.38
2019-03-23T12:39:19.778Z,1344.38
2019-03-23T12:40:19.841Z,1350.00
2019-03-23T12:41:23.230Z,1440.00
2019-03-23T12:42:19.965Z,1175.63
2019-03-23T12:43:20.024Z,1068.75
2019-03-23T12:44:20.083Z,1040.63
2019-03-23T12:45:20.147Z,1102.50
2019-03-23T12:46:20.209Z,1175.63
2019-03-23T12:47:20.268Z,1096.88
2019-03-23T12:48:20.329Z,1001.25
2019-03-23T12:49:20.391Z,922.50
2019-03-23T12:50:20.453Z,900.00
2019-03-23T12:51:20.512Z,967.50